sensor_id;sensor_type;location;lat;lon;timestamp;P1;durP1;ratioP1;P2;durP2;ratioP2
22949;SDS011;11641;51.018;4.474;2023-02-28T00:00:11;10.00;;;6.05;;
22949;SDS011;11641;51.018;4.474;2023-02-28T00:02:38;12.98;;;6.10;;
22949;SDS011;11641;51.018;4.474;2023-02-28T00:05:05;13.98;;;6.75;;
22949;SDS011;11641;51.018;4.474;2023-02-28T00:07:32;12.50;;;6.10;;
22949;SDS011;11641;51.018;4.474;2023-02-28T00:09:59;9.90;;;5.55;;
22949;SDS011;11641;51.018;4.474;2023-02-28T00:12:25;11.57;;;5.80;;
22949;SDS011;11641;51.018;4.474;2023-02-28T00:14:51;14.07;;;6.13;;
22949;SDS011;11641;51.018;4.474;2023-02-28T00:17:18;11.52;;;5.85;;
22949;SDS011;11641;51.018;4.474;2023-02-28T00:19:46;8.93;;;5.82;;
22949;SDS011;11641;51.018;4.474;2023-02-28T00:22:13;9.55;;;5.90;;
22949;SDS011;11641;51.018;4.474;2023-02-28T00:24:40;12.80;;;6.57;;
22949;SDS011;11641;51.018;4.474;2023-02-28T00:27:06;10.45;;;6.15;;
22949;SDS011;11641;51.018;4.474;2023-02-28T00:29:32;13.57;;;6.43;;
22949;SDS011;11641;51.018;4.474;2023-02-28T00:31:57;9.68;;;6.32;;
22949;SDS011;11641;51.018;4.474;2023-02-28T00:34:23;13.88;;;6.22;;
22949;SDS011;11641;51.018;4.474;2023-02-28T00:36:48;11.07;;;6.25;;
22949;SDS011;11641;51.018;4.474;2023-02-28T00:39:14;9.13;;;5.95;;
22949;SDS011;11641;51.018;4.474;2023-02-28T00:41:40;8.77;;;6.38;;
22949;SDS011;11641;51.018;4.474;2023-02-28T00:44:08;9.43;;;6.18;;
22949;SDS011;11641;51.018;4.474;2023-02-28T00:46:34;11.00;;;6.40;;
22949;SDS011;11641;51.018;4.474;2023-02-28T00:49:00;11.35;;;6.60;;
22949;SDS011;11641;51.018;4.474;2023-02-28T00:51:25;9.60;;;6.65;;
22949;SDS011;11641;51.018;4.474;2023-02-28T00:53:53;10.40;;;6.65;;
22949;SDS011;11641;51.018;4.474;2023-02-28T00:56:22;12.80;;;6.70;;
22949;SDS011;11641;51.018;4.474;2023-02-28T00:58:47;15.07;;;7.00;;
22949;SDS011;11641;51.018;4.474;2023-02-28T01:01:13;11.40;;;7.13;;
22949;SDS011;11641;51.018;4.474;2023-02-28T01:03:38;9.90;;;6.57;;
22949;SDS011;11641;51.018;4.474;2023-02-28T01:06:04;10.75;;;6.95;;
22949;SDS011;11641;51.018;4.474;2023-02-28T01:08:30;10.10;;;6.15;;
22949;SDS011;11641;51.018;4.474;2023-02-28T01:10:56;14.95;;;6.90;;
22949;SDS011;11641;51.018;4.474;2023-02-28T01:13:22;12.05;;;7.30;;
22949;SDS011;11641;51.018;4.474;2023-02-28T01:15:52;8.70;;;6.38;;
22949;SDS011;11641;51.018;4.474;2023-02-28T01:18:21;10.32;;;6.60;;
22949;SDS011;11641;51.018;4.474;2023-02-28T01:20:47;10.07;;;7.47;;
22949;SDS011;11641;51.018;4.474;2023-02-28T01:23:13;9.80;;;6.65;;
22949;SDS011;11641;51.018;4.474;2023-02-28T01:25:39;7.57;;;6.35;;
22949;SDS011;11641;51.018;4.474;2023-02-28T01:28:05;10.60;;;6.95;;
22949;SDS011;11641;51.018;4.474;2023-02-28T01:30:31;9.90;;;7.25;;
22949;SDS011;11641;51.018;4.474;2023-02-28T01:32:58;10.88;;;7.45;;
22949;SDS011;11641;51.018;4.474;2023-02-28T01:35:24;12.80;;;6.95;;
22949;SDS011;11641;51.018;4.474;2023-02-28T01:37:50;10.63;;;6.50;;
22949;SDS011;11641;51.018;4.474;2023-02-28T01:40:15;10.65;;;7.18;;
22949;SDS011;11641;51.018;4.474;2023-02-28T01:42:41;10.80;;;7.70;;
22949;SDS011;11641;51.018;4.474;2023-02-28T01:47:56;12.63;;;7.28;;
22949;SDS011;11641;51.018;4.474;2023-02-28T01:50:28;12.15;;;7.28;;
22949;SDS011;11641;51.018;4.474;2023-02-28T01:52:58;11.48;;;7.45;;
22949;SDS011;11641;51.018;4.474;2023-02-28T01:55:26;14.05;;;8.13;;
22949;SDS011;11641;51.018;4.474;2023-02-28T01:57:56;12.88;;;7.88;;
22949;SDS011;11641;51.018;4.474;2023-02-28T02:00:26;15.13;;;7.78;;
22949;SDS011;11641;51.018;4.474;2023-02-28T02:02:54;15.07;;;7.82;;
22949;SDS011;11641;51.018;4.474;2023-02-28T02:05:23;12.05;;;7.32;;
22949;SDS011;11641;51.018;4.474;2023-02-28T02:07:55;14.70;;;7.85;;
22949;SDS011;11641;51.018;4.474;2023-02-28T02:10:45;10.60;;;6.32;;
22949;SDS011;11641;51.018;4.474;2023-02-28T02:22:03;18.20;;;8.27;;
22949;SDS011;11641;51.018;4.474;2023-02-28T02:38:40;13.43;;;8.15;;
22949;SDS011;11641;51.018;4.474;2023-02-28T02:41:33;15.77;;;8.90;;
22949;SDS011;11641;51.018;4.474;2023-02-28T02:46:39;13.65;;;7.90;;
22949;SDS011;11641;51.018;4.474;2023-02-28T02:49:10;12.65;;;8.02;;
22949;SDS011;11641;51.018;4.474;2023-02-28T02:51:41;12.57;;;7.70;;
22949;SDS011;11641;51.018;4.474;2023-02-28T02:54:28;14.30;;;8.38;;
22949;SDS011;11641;51.018;4.474;2023-02-28T02:56:57;12.73;;;8.20;;
22949;SDS011;11641;51.018;4.474;2023-02-28T02:59:25;11.48;;;7.88;;
22949;SDS011;11641;51.018;4.474;2023-02-28T03:01:57;13.32;;;8.13;;
22949;SDS011;11641;51.018;4.474;2023-02-28T03:04:27;12.32;;;7.82;;
22949;SDS011;11641;51.018;4.474;2023-02-28T03:06:59;12.57;;;8.25;;
22949;SDS011;11641;51.018;4.474;2023-02-28T03:09:25;11.93;;;7.95;;
22949;SDS011;11641;51.018;4.474;2023-02-28T03:11:52;13.20;;;7.60;;
22949;SDS011;11641;51.018;4.474;2023-02-28T03:17:14;12.63;;;8.20;;
22949;SDS011;11641;51.018;4.474;2023-02-28T03:28:00;12.77;;;8.20;;
22949;SDS011;11641;51.018;4.474;2023-02-28T03:30:51;14.80;;;8.40;;
22949;SDS011;11641;51.018;4.474;2023-02-28T03:35:55;13.18;;;7.78;;
22949;SDS011;11641;51.018;4.474;2023-02-28T03:38:41;11.57;;;7.85;;
22949;SDS011;11641;51.018;4.474;2023-02-28T03:41:18;13.23;;;7.75;;
22949;SDS011;11641;51.018;4.474;2023-02-28T03:44:35;14.73;;;7.70;;
22949;SDS011;11641;51.018;4.474;2023-02-28T03:46:48;20.52;;;7.95;;
22949;SDS011;11641;51.018;4.474;2023-02-28T03:49:20;10.23;;;7.30;;
22949;SDS011;11641;51.018;4.474;2023-02-28T03:51:51;13.70;;;8.55;;
22949;SDS011;11641;51.018;4.474;2023-02-28T03:54:20;13.80;;;8.35;;
22949;SDS011;11641;51.018;4.474;2023-02-28T03:57:03;13.68;;;8.85;;
22949;SDS011;11641;51.018;4.474;2023-02-28T03:59:47;15.13;;;8.15;;
22949;SDS011;11641;51.018;4.474;2023-02-28T04:02:22;11.70;;;8.20;;
22949;SDS011;11641;51.018;4.474;2023-02-28T04:04:48;15.32;;;8.57;;
22949;SDS011;11641;51.018;4.474;2023-02-28T04:07:14;11.10;;;7.68;;
22949;SDS011;11641;51.018;4.474;2023-02-28T04:09:40;13.82;;;8.00;;
22949;SDS011;11641;51.018;4.474;2023-02-28T04:12:06;10.80;;;7.75;;
22949;SDS011;11641;51.018;4.474;2023-02-28T04:14:32;14.88;;;8.10;;
22949;SDS011;11641;51.018;4.474;2023-02-28T04:16:58;13.45;;;7.78;;
22949;SDS011;11641;51.018;4.474;2023-02-28T04:19:23;14.98;;;7.80;;
22949;SDS011;11641;51.018;4.474;2023-02-28T04:21:50;10.75;;;7.63;;
22949;SDS011;11641;51.018;4.474;2023-02-28T04:24:22;13.45;;;7.95;;
22949;SDS011;11641;51.018;4.474;2023-02-28T04:26:50;14.57;;;7.97;;
22949;SDS011;11641;51.018;4.474;2023-02-28T04:29:18;13.52;;;8.48;;
22949;SDS011;11641;51.018;4.474;2023-02-28T04:31:45;14.13;;;8.30;;
22949;SDS011;11641;51.018;4.474;2023-02-28T04:34:11;11.65;;;8.30;;
22949;SDS011;11641;51.018;4.474;2023-02-28T04:36:39;14.07;;;8.38;;
22949;SDS011;11641;51.018;4.474;2023-02-28T04:39:05;14.27;;;8.40;;
22949;SDS011;11641;51.018;4.474;2023-02-28T04:41:31;16.23;;;8.75;;
22949;SDS011;11641;51.018;4.474;2023-02-28T04:43:56;15.35;;;7.68;;
22949;SDS011;11641;51.018;4.474;2023-02-28T04:46:26;17.20;;;8.13;;
22949;SDS011;11641;51.018;4.474;2023-02-28T04:48:52;15.70;;;8.57;;
22949;SDS011;11641;51.018;4.474;2023-02-28T04:51:21;11.23;;;7.82;;
22949;SDS011;11641;51.018;4.474;2023-02-28T04:53:49;11.20;;;7.30;;
22949;SDS011;11641;51.018;4.474;2023-02-28T04:56:16;13.75;;;7.75;;
22949;SDS011;11641;51.018;4.474;2023-02-28T04:58:44;13.88;;;7.43;;
22949;SDS011;11641;51.018;4.474;2023-02-28T05:03:50;12.80;;;7.25;;
22949;SDS011;11641;51.018;4.474;2023-02-28T05:06:17;13.00;;;7.30;;
22949;SDS011;11641;51.018;4.474;2023-02-28T05:08:45;11.45;;;7.60;;
22949;SDS011;11641;51.018;4.474;2023-02-28T05:11:30;12.98;;;7.25;;
22949;SDS011;11641;51.018;4.474;2023-02-28T05:14:01;11.73;;;7.32;;
22949;SDS011;11641;51.018;4.474;2023-02-28T05:16:28;12.18;;;7.57;;
22949;SDS011;11641;51.018;4.474;2023-02-28T05:18:56;12.60;;;7.47;;
22949;SDS011;11641;51.018;4.474;2023-02-28T05:21:27;13.20;;;7.43;;
22949;SDS011;11641;51.018;4.474;2023-02-28T05:24:01;13.40;;;7.30;;
22949;SDS011;11641;51.018;4.474;2023-02-28T05:26:35;14.25;;;8.27;;
22949;SDS011;11641;51.018;4.474;2023-02-28T05:29:02;11.35;;;7.10;;
22949;SDS011;11641;51.018;4.474;2023-02-28T05:31:28;12.98;;;7.57;;
22949;SDS011;11641;51.018;4.474;2023-02-28T05:33:54;11.15;;;7.22;;
22949;SDS011;11641;51.018;4.474;2023-02-28T05:36:20;12.25;;;7.78;;
22949;SDS011;11641;51.018;4.474;2023-02-28T05:38:49;11.18;;;6.85;;
22949;SDS011;11641;51.018;4.474;2023-02-28T05:41:15;13.20;;;7.55;;
22949;SDS011;11641;51.018;4.474;2023-02-28T05:43:44;10.95;;;6.85;;
22949;SDS011;11641;51.018;4.474;2023-02-28T05:46:11;11.75;;;7.03;;
22949;SDS011;11641;51.018;4.474;2023-02-28T05:48:42;14.43;;;7.57;;
22949;SDS011;11641;51.018;4.474;2023-02-28T05:51:10;12.43;;;6.75;;
22949;SDS011;11641;51.018;4.474;2023-02-28T05:53:36;13.23;;;7.18;;
22949;SDS011;11641;51.018;4.474;2023-02-28T05:56:01;13.85;;;7.28;;
22949;SDS011;11641;51.018;4.474;2023-02-28T05:58:27;13.18;;;6.70;;
22949;SDS011;11641;51.018;4.474;2023-02-28T06:00:59;11.65;;;6.60;;
22949;SDS011;11641;51.018;4.474;2023-02-28T06:03:28;11.38;;;6.97;;
22949;SDS011;11641;51.018;4.474;2023-02-28T06:05:54;12.25;;;7.57;;
22949;SDS011;11641;51.018;4.474;2023-02-28T06:08:19;15.45;;;7.60;;
22949;SDS011;11641;51.018;4.474;2023-02-28T06:10:45;11.15;;;7.25;;
22949;SDS011;11641;51.018;4.474;2023-02-28T06:13:14;14.02;;;6.80;;
22949;SDS011;11641;51.018;4.474;2023-02-28T06:15:42;11.65;;;7.30;;
22949;SDS011;11641;51.018;4.474;2023-02-28T06:18:07;12.93;;;7.30;;
22949;SDS011;11641;51.018;4.474;2023-02-28T06:20:33;11.15;;;7.60;;
22949;SDS011;11641;51.018;4.474;2023-02-28T06:22:59;12.52;;;6.82;;
22949;SDS011;11641;51.018;4.474;2023-02-28T06:25:25;11.68;;;7.22;;
22949;SDS011;11641;51.018;4.474;2023-02-28T06:27:52;11.82;;;6.75;;
22949;SDS011;11641;51.018;4.474;2023-02-28T06:30:18;14.20;;;7.75;;
22949;SDS011;11641;51.018;4.474;2023-02-28T06:32:48;13.38;;;7.55;;
22949;SDS011;11641;51.018;4.474;2023-02-28T06:35:14;10.63;;;7.43;;
22949;SDS011;11641;51.018;4.474;2023-02-28T06:37:42;11.50;;;7.00;;
22949;SDS011;11641;51.018;4.474;2023-02-28T06:40:09;16.67;;;7.10;;
22949;SDS011;11641;51.018;4.474;2023-02-28T06:42:35;19.38;;;6.85;;
22949;SDS011;11641;51.018;4.474;2023-02-28T06:45:03;19.70;;;6.32;;
22949;SDS011;11641;51.018;4.474;2023-02-28T06:47:34;18.55;;;7.30;;
22949;SDS011;11641;51.018;4.474;2023-02-28T06:50:02;17.98;;;7.80;;
22949;SDS011;11641;51.018;4.474;2023-02-28T06:52:29;17.38;;;7.55;;
22949;SDS011;11641;51.018;4.474;2023-02-28T06:54:55;20.95;;;7.32;;
22949;SDS011;11641;51.018;4.474;2023-02-28T06:57:31;19.33;;;7.10;;
22949;SDS011;11641;51.018;4.474;2023-02-28T06:59:58;23.63;;;7.07;;
22949;SDS011;11641;51.018;4.474;2023-02-28T07:02:24;15.07;;;6.93;;
22949;SDS011;11641;51.018;4.474;2023-02-28T07:04:51;22.13;;;7.47;;
22949;SDS011;11641;51.018;4.474;2023-02-28T07:07:16;20.55;;;6.78;;
22949;SDS011;11641;51.018;4.474;2023-02-28T07:09:42;18.58;;;7.28;;
22949;SDS011;11641;51.018;4.474;2023-02-28T07:12:10;14.77;;;6.90;;
22949;SDS011;11641;51.018;4.474;2023-02-28T07:14:36;24.20;;;7.15;;
22949;SDS011;11641;51.018;4.474;2023-02-28T07:17:02;37.22;;;7.72;;
22949;SDS011;11641;51.018;4.474;2023-02-28T07:19:28;23.02;;;7.97;;
22949;SDS011;11641;51.018;4.474;2023-02-28T07:21:54;27.13;;;7.15;;
22949;SDS011;11641;51.018;4.474;2023-02-28T07:24:19;20.98;;;6.60;;
22949;SDS011;11641;51.018;4.474;2023-02-28T07:26:50;21.48;;;7.32;;
22949;SDS011;11641;51.018;4.474;2023-02-28T07:29:19;32.03;;;8.23;;
22949;SDS011;11641;51.018;4.474;2023-02-28T07:31:44;28.70;;;7.53;;
22949;SDS011;11641;51.018;4.474;2023-02-28T07:34:11;16.65;;;7.07;;
22949;SDS011;11641;51.018;4.474;2023-02-28T07:36:38;26.52;;;7.65;;
22949;SDS011;11641;51.018;4.474;2023-02-28T07:39:08;17.08;;;7.13;;
22949;SDS011;11641;51.018;4.474;2023-02-28T07:41:34;25.70;;;7.38;;
22949;SDS011;11641;51.018;4.474;2023-02-28T07:44:04;16.00;;;7.25;;
22949;SDS011;11641;51.018;4.474;2023-02-28T07:46:32;23.27;;;7.10;;
22949;SDS011;11641;51.018;4.474;2023-02-28T07:49:02;15.38;;;6.20;;
22949;SDS011;11641;51.018;4.474;2023-02-28T07:51:29;10.63;;;5.85;;
22949;SDS011;11641;51.018;4.474;2023-02-28T07:53:55;14.63;;;6.35;;
22949;SDS011;11641;51.018;4.474;2023-02-28T07:56:23;22.15;;;6.55;;
22949;SDS011;11641;51.018;4.474;2023-02-28T07:58:49;18.05;;;6.30;;
22949;SDS011;11641;51.018;4.474;2023-02-28T08:01:15;8.43;;;5.38;;
22949;SDS011;11641;51.018;4.474;2023-02-28T08:03:40;14.05;;;5.65;;
22949;SDS011;11641;51.018;4.474;2023-02-28T08:06:07;11.73;;;5.30;;
22949;SDS011;11641;51.018;4.474;2023-02-28T08:08:39;10.90;;;5.37;;
22949;SDS011;11641;51.018;4.474;2023-02-28T08:11:05;8.93;;;4.63;;
22949;SDS011;11641;51.018;4.474;2023-02-28T08:13:30;12.23;;;5.70;;
22949;SDS011;11641;51.018;4.474;2023-02-28T08:16:00;7.35;;;4.82;;
22949;SDS011;11641;51.018;4.474;2023-02-28T08:18:29;7.93;;;4.93;;
22949;SDS011;11641;51.018;4.474;2023-02-28T08:20:55;8.25;;;5.18;;
22949;SDS011;11641;51.018;4.474;2023-02-28T08:23:22;7.20;;;4.60;;
22949;SDS011;11641;51.018;4.474;2023-02-28T08:25:54;8.05;;;4.70;;
22949;SDS011;11641;51.018;4.474;2023-02-28T08:28:21;10.23;;;4.87;;
22949;SDS011;11641;51.018;4.474;2023-02-28T08:30:47;8.88;;;3.92;;
22949;SDS011;11641;51.018;4.474;2023-02-28T08:33:13;7.03;;;3.65;;
22949;SDS011;11641;51.018;4.474;2023-02-28T08:35:39;6.53;;;4.00;;
22949;SDS011;11641;51.018;4.474;2023-02-28T08:38:05;6.43;;;4.22;;
22949;SDS011;11641;51.018;4.474;2023-02-28T08:40:32;8.70;;;3.83;;
22949;SDS011;11641;51.018;4.474;2023-02-28T08:43:00;9.27;;;3.90;;
22949;SDS011;11641;51.018;4.474;2023-02-28T08:45:29;8.15;;;4.00;;
22949;SDS011;11641;51.018;4.474;2023-02-28T08:47:56;6.80;;;4.10;;
22949;SDS011;11641;51.018;4.474;2023-02-28T08:50:22;10.40;;;3.97;;
22949;SDS011;11641;51.018;4.474;2023-02-28T08:52:48;15.10;;;3.80;;
22949;SDS011;11641;51.018;4.474;2023-02-28T08:55:13;6.45;;;3.78;;
22949;SDS011;11641;51.018;4.474;2023-02-28T08:57:39;4.53;;;3.80;;
22949;SDS011;11641;51.018;4.474;2023-02-28T09:00:05;6.45;;;3.70;;
22949;SDS011;11641;51.018;4.474;2023-02-28T09:02:32;10.80;;;3.70;;
22949;SDS011;11641;51.018;4.474;2023-02-28T09:04:58;6.43;;;2.70;;
22949;SDS011;11641;51.018;4.474;2023-02-28T09:07:24;4.07;;;2.55;;
22949;SDS011;11641;51.018;4.474;2023-02-28T09:09:50;4.93;;;2.65;;
22949;SDS011;11641;51.018;4.474;2023-02-28T09:12:26;5.00;;;2.60;;
22949;SDS011;11641;51.018;4.474;2023-02-28T09:17:22;13.57;;;3.88;;
22949;SDS011;11641;51.018;4.474;2023-02-28T09:19:48;9.38;;;2.83;;
22949;SDS011;11641;51.018;4.474;2023-02-28T09:22:14;5.38;;;2.78;;
22949;SDS011;11641;51.018;4.474;2023-02-28T09:24:40;7.88;;;2.65;;
22949;SDS011;11641;51.018;4.474;2023-02-28T09:27:05;5.85;;;2.55;;
22949;SDS011;11641;51.018;4.474;2023-02-28T09:29:32;6.35;;;2.30;;
22949;SDS011;11641;51.018;4.474;2023-02-28T09:31:59;8.10;;;2.38;;
22949;SDS011;11641;51.018;4.474;2023-02-28T09:34:28;6.95;;;2.17;;
22949;SDS011;11641;51.018;4.474;2023-02-28T09:36:55;6.68;;;2.40;;
22949;SDS011;11641;51.018;4.474;2023-02-28T09:39:21;3.78;;;2.10;;
22949;SDS011;11641;51.018;4.474;2023-02-28T09:41:49;3.17;;;1.83;;
22949;SDS011;11641;51.018;4.474;2023-02-28T09:44:27;9.13;;;1.95;;
22949;SDS011;11641;51.018;4.474;2023-02-28T09:47:04;6.63;;;1.80;;
22949;SDS011;11641;51.018;4.474;2023-02-28T09:49:49;9.60;;;1.85;;
22949;SDS011;11641;51.018;4.474;2023-02-28T09:52:17;5.72;;;1.90;;
22949;SDS011;11641;51.018;4.474;2023-02-28T09:54:48;5.00;;;2.17;;
22949;SDS011;11641;51.018;4.474;2023-02-28T09:57:19;9.35;;;2.40;;
22949;SDS011;11641;51.018;4.474;2023-02-28T10:00:15;4.95;;;2.13;;
22949;SDS011;11641;51.018;4.474;2023-02-28T10:05:39;7.20;;;2.30;;
22949;SDS011;11641;51.018;4.474;2023-02-28T10:08:14;7.20;;;2.95;;
22949;SDS011;11641;51.018;4.474;2023-02-28T10:10:47;5.53;;;2.13;;
22949;SDS011;11641;51.018;4.474;2023-02-28T10:16:35;4.13;;;1.75;;
22949;SDS011;11641;51.018;4.474;2023-02-28T10:21:54;7.95;;;2.10;;
22949;SDS011;11641;51.018;4.474;2023-02-28T10:24:28;5.93;;;1.90;;
22949;SDS011;11641;51.018;4.474;2023-02-28T10:30:23;6.93;;;1.65;;
22949;SDS011;11641;51.018;4.474;2023-02-28T10:32:50;2.58;;;1.50;;
22949;SDS011;11641;51.018;4.474;2023-02-28T10:35:22;3.70;;;1.67;;
22949;SDS011;11641;51.018;4.474;2023-02-28T10:37:54;2.90;;;1.80;;
22949;SDS011;11641;51.018;4.474;2023-02-28T10:42:57;3.38;;;1.83;;
22949;SDS011;11641;51.018;4.474;2023-02-28T10:45:31;6.13;;;1.88;;
22949;SDS011;11641;51.018;4.474;2023-02-28T10:48:03;8.80;;;2.15;;
22949;SDS011;11641;51.018;4.474;2023-02-28T11:09:44;2.22;;;1.52;;
22949;SDS011;11641;51.018;4.474;2023-02-28T11:12:33;3.85;;;1.60;;
22949;SDS011;11641;51.018;4.474;2023-02-28T11:15:02;7.13;;;1.83;;
22949;SDS011;11641;51.018;4.474;2023-02-28T11:17:32;3.35;;;2.00;;
22949;SDS011;11641;51.018;4.474;2023-02-28T11:20:03;9.88;;;1.83;;
22949;SDS011;11641;51.018;4.474;2023-02-28T11:22:33;3.75;;;1.88;;
22949;SDS011;11641;51.018;4.474;2023-02-28T11:25:07;5.88;;;1.88;;
22949;SDS011;11641;51.018;4.474;2023-02-28T11:30:39;3.15;;;1.58;;
22949;SDS011;11641;51.018;4.474;2023-02-28T11:33:19;9.60;;;1.77;;
22949;SDS011;11641;51.018;4.474;2023-02-28T11:36:02;3.53;;;1.80;;
22949;SDS011;11641;51.018;4.474;2023-02-28T11:38:36;4.63;;;1.73;;
22949;SDS011;11641;51.018;4.474;2023-02-28T11:49:02;3.92;;;1.70;;
22949;SDS011;11641;51.018;4.474;2023-02-28T11:51:35;3.13;;;1.60;;
22949;SDS011;11641;51.018;4.474;2023-02-28T11:56:58;4.43;;;2.00;;
22949;SDS011;11641;51.018;4.474;2023-02-28T12:02:28;7.90;;;1.80;;
22949;SDS011;11641;51.018;4.474;2023-02-28T12:05:10;5.63;;;1.70;;
22949;SDS011;11641;51.018;4.474;2023-02-28T12:27:15;4.45;;;1.50;;
22949;SDS011;11641;51.018;4.474;2023-02-28T12:29:52;2.35;;;1.40;;
22949;SDS011;11641;51.018;4.474;2023-02-28T12:32:27;2.45;;;1.20;;
22949;SDS011;11641;51.018;4.474;2023-02-28T12:37:41;6.47;;;1.48;;
22949;SDS011;11641;51.018;4.474;2023-02-28T12:40:32;9.48;;;2.50;;
22949;SDS011;11641;51.018;4.474;2023-02-28T12:43:19;7.82;;;1.90;;
22949;SDS011;11641;51.018;4.474;2023-02-28T12:45:51;7.55;;;1.80;;
22949;SDS011;11641;51.018;4.474;2023-02-28T12:48:40;10.60;;;2.10;;
22949;SDS011;11641;51.018;4.474;2023-02-28T12:51:11;3.70;;;1.50;;
22949;SDS011;11641;51.018;4.474;2023-02-28T13:01:32;11.15;;;2.30;;
22949;SDS011;11641;51.018;4.474;2023-02-28T13:09:59;4.45;;;1.50;;
22949;SDS011;11641;51.018;4.474;2023-02-28T13:12:27;3.17;;;1.67;;
22949;SDS011;11641;51.018;4.474;2023-02-28T13:15:04;2.35;;;1.60;;
22949;SDS011;11641;51.018;4.474;2023-02-28T13:17:37;2.67;;;1.70;;
22949;SDS011;11641;51.018;4.474;2023-02-28T13:20:13;8.10;;;1.77;;
22949;SDS011;11641;51.018;4.474;2023-02-28T13:22:47;6.88;;;2.28;;
22949;SDS011;11641;51.018;4.474;2023-02-28T13:27:49;10.95;;;2.08;;
22949;SDS011;11641;51.018;4.474;2023-02-28T13:35:45;2.92;;;1.55;;
22949;SDS011;11641;51.018;4.474;2023-02-28T13:38:22;4.05;;;1.40;;
22949;SDS011;11641;51.018;4.474;2023-02-28T13:41:18;4.10;;;1.53;;
22949;SDS011;11641;51.018;4.474;2023-02-28T13:46:31;5.35;;;1.98;;
22949;SDS011;11641;51.018;4.474;2023-02-28T14:11:27;4.32;;;1.77;;
22949;SDS011;11641;51.018;4.474;2023-02-28T14:13:56;5.00;;;1.77;;
22949;SDS011;11641;51.018;4.474;2023-02-28T14:16:26;6.40;;;1.73;;
22949;SDS011;11641;51.018;4.474;2023-02-28T14:19:05;14.48;;;2.45;;
22949;SDS011;11641;51.018;4.474;2023-02-28T14:21:50;5.53;;;2.30;;
22949;SDS011;11641;51.018;4.474;2023-02-28T14:24:39;8.32;;;2.00;;
22949;SDS011;11641;51.018;4.474;2023-02-28T14:38:29;7.32;;;2.22;;
22949;SDS011;11641;51.018;4.474;2023-02-28T14:40:58;2.47;;;1.58;;
22949;SDS011;11641;51.018;4.474;2023-02-28T14:43:27;5.53;;;1.95;;
22949;SDS011;11641;51.018;4.474;2023-02-28T14:45:58;3.13;;;1.70;;
22949;SDS011;11641;51.018;4.474;2023-02-28T14:48:29;4.45;;;2.05;;
22949;SDS011;11641;51.018;4.474;2023-02-28T14:50:59;3.00;;;1.70;;
22949;SDS011;11641;51.018;4.474;2023-02-28T14:53:29;3.60;;;1.88;;
22949;SDS011;11641;51.018;4.474;2023-02-28T14:56:00;4.15;;;2.08;;
22949;SDS011;11641;51.018;4.474;2023-02-28T14:58:32;5.97;;;2.17;;
22949;SDS011;11641;51.018;4.474;2023-02-28T15:01:00;3.40;;;1.70;;
22949;SDS011;11641;51.018;4.474;2023-02-28T15:03:30;5.28;;;2.05;;
22949;SDS011;11641;51.018;4.474;2023-02-28T15:06:01;3.30;;;1.73;;
22949;SDS011;11641;51.018;4.474;2023-02-28T15:08:38;4.78;;;1.67;;
22949;SDS011;11641;51.018;4.474;2023-02-28T15:11:07;3.83;;;1.77;;
22949;SDS011;11641;51.018;4.474;2023-02-28T15:13:48;6.53;;;2.10;;
22949;SDS011;11641;51.018;4.474;2023-02-28T15:16:21;5.72;;;1.90;;
22949;SDS011;11641;51.018;4.474;2023-02-28T15:18:57;3.40;;;1.83;;
22949;SDS011;11641;51.018;4.474;2023-02-28T15:21:30;6.40;;;1.90;;
22949;SDS011;11641;51.018;4.474;2023-02-28T15:24:46;4.63;;;2.00;;
22949;SDS011;11641;51.018;4.474;2023-02-28T15:27:00;11.57;;;2.78;;
22949;SDS011;11641;51.018;4.474;2023-02-28T15:29:41;12.68;;;2.88;;
22949;SDS011;11641;51.018;4.474;2023-02-28T15:32:21;13.82;;;2.83;;
22949;SDS011;11641;51.018;4.474;2023-02-28T15:34:59;11.80;;;2.53;;
22949;SDS011;11641;51.018;4.474;2023-02-28T15:37:48;5.05;;;1.63;;
22949;SDS011;11641;51.018;4.474;2023-02-28T15:40:36;2.95;;;2.08;;
22949;SDS011;11641;51.018;4.474;2023-02-28T15:51:16;3.13;;;1.77;;
22949;SDS011;11641;51.018;4.474;2023-02-28T15:53:45;3.17;;;1.90;;
22949;SDS011;11641;51.018;4.474;2023-02-28T15:56:33;4.07;;;1.90;;
22949;SDS011;11641;51.018;4.474;2023-02-28T15:59:04;4.32;;;2.00;;
22949;SDS011;11641;51.018;4.474;2023-02-28T16:01:33;8.95;;;2.20;;
22949;SDS011;11641;51.018;4.474;2023-02-28T16:04:01;8.63;;;2.08;;
22949;SDS011;11641;51.018;4.474;2023-02-28T16:09:00;6.78;;;2.00;;
22949;SDS011;11641;51.018;4.474;2023-02-28T16:11:26;6.63;;;2.70;;
22949;SDS011;11641;51.018;4.474;2023-02-28T16:13:52;8.57;;;2.05;;
22949;SDS011;11641;51.018;4.474;2023-02-28T16:16:20;5.95;;;2.30;;
22949;SDS011;11641;51.018;4.474;2023-02-28T16:18:47;9.73;;;2.50;;
22949;SDS011;11641;51.018;4.474;2023-02-28T16:21:13;11.77;;;2.78;;
22949;SDS011;11641;51.018;4.474;2023-02-28T16:23:38;4.82;;;2.17;;
22949;SDS011;11641;51.018;4.474;2023-02-28T16:26:04;3.05;;;1.90;;
22949;SDS011;11641;51.018;4.474;2023-02-28T16:28:32;6.63;;;2.20;;
22949;SDS011;11641;51.018;4.474;2023-02-28T16:31:00;3.55;;;2.20;;
22949;SDS011;11641;51.018;4.474;2023-02-28T16:33:30;6.47;;;2.30;;
22949;SDS011;11641;51.018;4.474;2023-02-28T16:35:58;9.05;;;2.30;;
22949;SDS011;11641;51.018;4.474;2023-02-28T16:38:27;4.75;;;2.22;;
22949;SDS011;11641;51.018;4.474;2023-02-28T16:40:54;6.60;;;2.80;;
22949;SDS011;11641;51.018;4.474;2023-02-28T16:43:22;7.15;;;2.33;;
22949;SDS011;11641;51.018;4.474;2023-02-28T16:45:58;3.45;;;2.15;;
22949;SDS011;11641;51.018;4.474;2023-02-28T16:48:23;3.33;;;2.33;;
22949;SDS011;11641;51.018;4.474;2023-02-28T16:50:52;5.63;;;2.40;;
22949;SDS011;11641;51.018;4.474;2023-02-28T16:53:17;8.88;;;5.63;;
22949;SDS011;11641;51.018;4.474;2023-02-28T16:55:43;5.60;;;2.90;;
22949;SDS011;11641;51.018;4.474;2023-02-28T16:58:12;5.68;;;3.50;;
22949;SDS011;11641;51.018;4.474;2023-02-28T17:00:39;4.50;;;3.10;;
22949;SDS011;11641;51.018;4.474;2023-02-28T17:03:09;4.57;;;2.83;;
22949;SDS011;11641;51.018;4.474;2023-02-28T17:05:48;4.82;;;3.25;;
22949;SDS011;11641;51.018;4.474;2023-02-28T17:08:16;6.05;;;3.08;;
22949;SDS011;11641;51.018;4.474;2023-02-28T17:10:42;10.13;;;3.55;;
22949;SDS011;11641;51.018;4.474;2023-02-28T17:13:07;8.27;;;4.72;;
22949;SDS011;11641;51.018;4.474;2023-02-28T17:15:34;5.32;;;3.20;;
22949;SDS011;11641;51.018;4.474;2023-02-28T17:18:02;8.25;;;3.25;;
22949;SDS011;11641;51.018;4.474;2023-02-28T17:20:49;6.00;;;3.47;;
22949;SDS011;11641;51.018;4.474;2023-02-28T17:23:15;5.82;;;3.50;;
22949;SDS011;11641;51.018;4.474;2023-02-28T17:25:43;5.70;;;3.63;;
22949;SDS011;11641;51.018;4.474;2023-02-28T17:28:18;6.40;;;3.55;;
22949;SDS011;11641;51.018;4.474;2023-02-28T17:30:45;5.90;;;3.80;;
22949;SDS011;11641;51.018;4.474;2023-02-28T17:33:12;10.05;;;5.57;;
22949;SDS011;11641;51.018;4.474;2023-02-28T17:35:38;10.27;;;5.85;;
22949;SDS011;11641;51.018;4.474;2023-02-28T17:38:03;7.50;;;4.32;;
22949;SDS011;11641;51.018;4.474;2023-02-28T17:40:29;12.05;;;4.18;;
22949;SDS011;11641;51.018;4.474;2023-02-28T17:42:57;5.78;;;4.30;;
22949;SDS011;11641;51.018;4.474;2023-02-28T17:45:25;8.55;;;3.83;;
22949;SDS011;11641;51.018;4.474;2023-02-28T17:47:50;8.45;;;4.38;;
22949;SDS011;11641;51.018;4.474;2023-02-28T17:50:20;7.75;;;4.00;;
22949;SDS011;11641;51.018;4.474;2023-02-28T17:52:55;8.25;;;4.07;;
22949;SDS011;11641;51.018;4.474;2023-02-28T17:55:21;6.32;;;3.65;;
22949;SDS011;11641;51.018;4.474;2023-02-28T17:57:46;8.02;;;4.20;;
22949;SDS011;11641;51.018;4.474;2023-02-28T18:00:13;23.10;;;5.43;;
22949;SDS011;11641;51.018;4.474;2023-02-28T18:02:43;8.75;;;4.40;;
22949;SDS011;11641;51.018;4.474;2023-02-28T18:05:09;10.20;;;4.75;;